Accueil
METAR-TAF:

METAR-TAF

Aéroports :

Aéroport de Plovdiv

Plovdiv, Bulgarie

latitude: 42-08N, longitude: 024-45E, altitude: 179 m

Observation

Le bulletin a été fait il y a 20 minutes, à 19:00 UTC
Vent 7 kt de est/sud-est
Température 29°C
Humidité 40%
Pression 1012 hPa
Visibilité 10 km ou plus

METAR: LBPD 131900Z AUTO 12007KT 9999 FEW250/// 29/14 Q1012 NOSIG

Heure: 22:20 (19:20 UTC)

Prévision

Le bulletin a été fait il y a 2 heures et 20 minutes, à 17:00 UTC
Prévision valable du 13 à 18 UTC au 14 à 18 UTC
Vent 4 kt de direction variable
Visibilité 10 km ou plus
pas de nuages en-dessous de 1500 mètres et pas de cumulonimbus.
Evoluant progressivement
du 14 à 10 UTC au 14 à 12 UTC
Vent 10 kt de sud-est

TAF: LBPD 131700Z 1318/1418 VRB04KT CAVOK BECMG 1410/1412 13010KT

Observations et prévisions météorologiques de plus de 4000 aéroports (messages METAR et TAF).

Les stations disponibles sont représentées par des disques jaunes et rouges sur la carte.

Passer la souris dessus pour voir le nom de la station.

Cliquer dessus pour voir les observations et prévisions météorologiques.

Pour changer de carte: cliquez sur les boutons verts avec une croix noire pour zoomer, sur le bouton vert avec un tiret pour effectuer un zoom arrière, ou sur les flèches vertes pour les cartes adjacentes.


METAR-TAF: